sensor_id;sensor_type;location;lat;lon;timestamp;P1;P2;P0
35654;PMS1003;21773;50.010;19.972;2022-09-29T00:01:50;6.00;5.00;5.00
35654;PMS1003;21773;50.010;19.972;2022-09-29T00:04:54;4.60;4.40;4.00
35654;PMS1003;21773;50.010;19.972;2022-09-29T00:07:57;4.00;4.00;4.00
35654;PMS1003;21773;50.010;19.972;2022-09-29T00:11:00;3.20;3.20;3.00
35654;PMS1003;21773;50.010;19.972;2022-09-29T00:14:11;5.40;5.40;5.00
35654;PMS1003;21773;50.010;19.972;2022-09-29T00:17:14;4.60;4.00;4.00
35654;PMS1003;21773;50.010;19.972;2022-09-29T00:20:18;6.00;5.00;5.00
35654;PMS1003;21773;50.010;19.972;2022-09-29T00:23:22;5.60;5.60;5.00
35654;PMS1003;21773;50.010;19.972;2022-09-29T00:26:25;6.00;6.00;6.00
35654;PMS1003;21773;50.010;19.972;2022-09-29T00:29:30;6.00;6.00;5.00
35654;PMS1003;21773;50.010;19.972;2022-09-29T00:32:34;5.00;5.00;5.00
35654;PMS1003;21773;50.010;19.972;2022-09-29T00:35:37;5.00;5.00;4.00
35654;PMS1003;21773;50.010;19.972;2022-09-29T00:38:41;5.60;5.00;4.60
35654;PMS1003;21773;50.010;19.972;2022-09-29T00:41:45;5.60;5.00;4.00
35654;PMS1003;21773;50.010;19.972;2022-09-29T00:45:00;5.20;4.80;4.80
35654;PMS1003;21773;50.010;19.972;2022-09-29T00:48:11;7.00;7.00;6.00
35654;PMS1003;21773;50.010;19.972;2022-09-29T00:51:18;6.00;6.00;6.00
35654;PMS1003;21773;50.010;19.972;2022-09-29T00:54:23;6.20;6.00;5.20
35654;PMS1003;21773;50.010;19.972;2022-09-29T00:57:32;7.00;7.00;6.00
35654;PMS1003;21773;50.010;19.972;2022-09-29T01:00:40;7.00;6.40;5.40
35654;PMS1003;21773;50.010;19.972;2022-09-29T01:03:44;8.00;7.75;7.50
35654;PMS1003;21773;50.010;19.972;2022-09-29T01:06:50;10.00;9.00;8.00
35654;PMS1003;21773;50.010;19.972;2022-09-29T01:09:57;7.80;7.20;7.00
35654;PMS1003;21773;50.010;19.972;2022-09-29T01:13:00;9.00;9.00;8.00
35654;PMS1003;21773;50.010;19.972;2022-09-29T01:16:06;8.00;8.00;7.00
35654;PMS1003;21773;50.010;19.972;2022-09-29T01:19:10;8.00;7.50;7.00
35654;PMS1003;21773;50.010;19.972;2022-09-29T01:22:21;9.00;9.00;8.00
35654;PMS1003;21773;50.010;19.972;2022-09-29T01:25:45;10.00;9.00;8.00
35654;PMS1003;21773;50.010;19.972;2022-09-29T01:33:09;8.80;8.80;8.20
35654;PMS1003;21773;50.010;19.972;2022-09-29T01:36:28;10.00;9.00;9.00
35654;PMS1003;21773;50.010;19.972;2022-09-29T01:39:42;10.00;10.00;9.00
35654;PMS1003;21773;50.010;19.972;2022-09-29T01:42:54;10.00;9.00;8.00
35654;PMS1003;21773;50.010;19.972;2022-09-29T01:46:04;8.00;8.00;7.20
35654;PMS1003;21773;50.010;19.972;2022-09-29T01:49:12;11.40;10.40;9.00
35654;PMS1003;21773;50.010;19.972;2022-09-29T01:52:18;11.00;10.00;9.00
35654;PMS1003;21773;50.010;19.972;2022-09-29T01:55:24;10.00;9.00;8.00
35654;PMS1003;21773;50.010;19.972;2022-09-29T01:58:33;11.00;10.00;8.40
35654;PMS1003;21773;50.010;19.972;2022-09-29T02:01:41;12.40;11.00;9.00
35654;PMS1003;21773;50.010;19.972;2022-09-29T02:04:49;10.50;9.00;8.00
35654;PMS1003;21773;50.010;19.972;2022-09-29T02:07:56;10.20;9.00;8.00
35654;PMS1003;21773;50.010;19.972;2022-09-29T02:11:05;11.00;10.00;9.00
35654;PMS1003;21773;50.010;19.972;2022-09-29T02:14:10;7.60;7.60;6.20
35654;PMS1003;21773;50.010;19.972;2022-09-29T02:17:17;12.00;11.40;10.00
35654;PMS1003;21773;50.010;19.972;2022-09-29T02:20:24;11.00;11.00;10.00
35654;PMS1003;21773;50.010;19.972;2022-09-29T02:23:27;11.60;11.00;9.60
35654;PMS1003;21773;50.010;19.972;2022-09-29T02:26:31;12.00;11.00;9.50
35654;PMS1003;21773;50.010;19.972;2022-09-29T02:29:36;11.60;9.60;7.60
35654;PMS1003;21773;50.010;19.972;2022-09-29T02:32:40;10.50;10.00;9.00
35654;PMS1003;21773;50.010;19.972;2022-09-29T02:35:47;12.00;11.00;9.25
35654;PMS1003;21773;50.010;19.972;2022-09-29T02:38:58;10.60;10.60;9.40
35654;PMS1003;21773;50.010;19.972;2022-09-29T02:42:06;10.60;10.00;9.60
35654;PMS1003;21773;50.010;19.972;2022-09-29T02:45:22;10.00;10.00;9.00
35654;PMS1003;21773;50.010;19.972;2022-09-29T02:52:08;12.00;10.40;9.00
35654;PMS1003;21773;50.010;19.972;2022-09-29T02:55:24;11.75;11.00;9.00
35654;PMS1003;21773;50.010;19.972;2022-09-29T02:58:37;15.00;13.00;11.75
35654;PMS1003;21773;50.010;19.972;2022-09-29T03:01:49;12.40;11.00;10.00
35654;PMS1003;21773;50.010;19.972;2022-09-29T03:04:54;13.00;13.00;10.00
35654;PMS1003;21773;50.010;19.972;2022-09-29T03:07:58;12.40;12.00;10.00
35654;PMS1003;21773;50.010;19.972;2022-09-29T03:11:02;12.00;11.33;10.00
35654;PMS1003;21773;50.010;19.972;2022-09-29T03:14:05;12.50;11.00;9.75
35654;PMS1003;21773;50.010;19.972;2022-09-29T03:17:09;9.60;9.20;8.60
35654;PMS1003;21773;50.010;19.972;2022-09-29T03:20:12;13.40;12.00;11.00
35654;PMS1003;21773;50.010;19.972;2022-09-29T03:23:17;10.40;9.80;9.40
35654;PMS1003;21773;50.010;19.972;2022-09-29T03:26:20;12.00;12.00;11.00
35654;PMS1003;21773;50.010;19.972;2022-09-29T03:29:24;13.00;12.00;11.00
35654;PMS1003;21773;50.010;19.972;2022-09-29T03:32:27;13.00;12.00;11.00
35654;PMS1003;21773;50.010;19.972;2022-09-29T03:35:31;14.00;13.00;11.80
35654;PMS1003;21773;50.010;19.972;2022-09-29T03:38:36;13.00;12.40;11.40
35654;PMS1003;21773;50.010;19.972;2022-09-29T03:41:40;12.60;11.40;10.00
35654;PMS1003;21773;50.010;19.972;2022-09-29T03:44:43;15.00;14.00;12.00
35654;PMS1003;21773;50.010;19.972;2022-09-29T03:47:47;13.00;11.00;10.00
35654;PMS1003;21773;50.010;19.972;2022-09-29T03:50:50;11.80;9.20;7.20
35654;PMS1003;21773;50.010;19.972;2022-09-29T03:53:55;14.00;12.50;11.00
35654;PMS1003;21773;50.010;19.972;2022-09-29T03:56:59;12.00;10.00;9.00
35654;PMS1003;21773;50.010;19.972;2022-09-29T04:00:03;11.00;10.60;9.00
35654;PMS1003;21773;50.010;19.972;2022-09-29T04:03:08;10.60;9.60;8.00
35654;PMS1003;21773;50.010;19.972;2022-09-29T04:06:12;10.20;9.00;8.00
35654;PMS1003;21773;50.010;19.972;2022-09-29T04:09:17;12.00;10.60;9.60
35654;PMS1003;21773;50.010;19.972;2022-09-29T04:12:20;9.00;8.00;7.00
35654;PMS1003;21773;50.010;19.972;2022-09-29T04:15:24;10.50;10.50;9.00
35654;PMS1003;21773;50.010;19.972;2022-09-29T04:18:28;10.80;10.00;9.00
35654;PMS1003;21773;50.010;19.972;2022-09-29T04:21:32;9.00;9.00;8.00
35654;PMS1003;21773;50.010;19.972;2022-09-29T04:24:36;10.50;9.00;8.00
35654;PMS1003;21773;50.010;19.972;2022-09-29T04:27:40;11.00;10.00;9.00
35654;PMS1003;21773;50.010;19.972;2022-09-29T04:30:43;10.00;10.00;8.40
35654;PMS1003;21773;50.010;19.972;2022-09-29T04:33:47;11.00;10.00;8.00
35654;PMS1003;21773;50.010;19.972;2022-09-29T04:36:50;10.00;9.00;7.20
35654;PMS1003;21773;50.010;19.972;2022-09-29T04:39:55;9.80;8.00;7.00
35654;PMS1003;21773;50.010;19.972;2022-09-29T04:42:59;9.40;9.00;7.40
35654;PMS1003;21773;50.010;19.972;2022-09-29T04:46:03;11.00;10.50;9.00
35654;PMS1003;21773;50.010;19.972;2022-09-29T04:49:07;8.40;7.60;7.40
35654;PMS1003;21773;50.010;19.972;2022-09-29T04:52:22;10.40;10.00;9.00
35654;PMS1003;21773;50.010;19.972;2022-09-29T04:55:27;6.50;6.50;6.00
35654;PMS1003;21773;50.010;19.972;2022-09-29T04:58:31;10.00;9.00;8.00
35654;PMS1003;21773;50.010;19.972;2022-09-29T05:01:34;8.50;8.50;7.00
35654;PMS1003;21773;50.010;19.972;2022-09-29T05:04:38;7.80;7.00;7.00
35654;PMS1003;21773;50.010;19.972;2022-09-29T05:07:41;10.00;9.00;7.80
35654;PMS1003;21773;50.010;19.972;2022-09-29T05:10:46;7.00;7.00;6.00
35654;PMS1003;21773;50.010;19.972;2022-09-29T05:13:51;7.20;7.20;6.00
35654;PMS1003;21773;50.010;19.972;2022-09-29T05:16:55;9.40;8.40;8.00
35654;PMS1003;21773;50.010;19.972;2022-09-29T05:19:59;10.40;9.00;8.00
35654;PMS1003;21773;50.010;19.972;2022-09-29T05:23:02;7.00;6.00;5.50
35654;PMS1003;21773;50.010;19.972;2022-09-29T05:26:12;11.00;10.00;9.00
35654;PMS1003;21773;50.010;19.972;2022-09-29T05:29:15;8.00;7.00;6.60
35654;PMS1003;21773;50.010;19.972;2022-09-29T05:32:19;9.40;8.40;7.40
35654;PMS1003;21773;50.010;19.972;2022-09-29T05:35:23;10.40;9.40;8.00
35654;PMS1003;21773;50.010;19.972;2022-09-29T05:38:26;7.00;6.00;6.00
35654;PMS1003;21773;50.010;19.972;2022-09-29T05:41:32;9.60;9.00;7.60
35654;PMS1003;21773;50.010;19.972;2022-09-29T05:44:35;7.40;7.00;6.00
35654;PMS1003;21773;50.010;19.972;2022-09-29T05:47:42;9.40;9.20;8.40
35654;PMS1003;21773;50.010;19.972;2022-09-29T05:50:46;8.00;8.00;7.00
35654;PMS1003;21773;50.010;19.972;2022-09-29T05:53:49;7.25;7.00;6.00
35654;PMS1003;21773;50.010;19.972;2022-09-29T05:56:55;6.80;6.80;5.80
35654;PMS1003;21773;50.010;19.972;2022-09-29T05:59:58;7.60;6.00;5.00
35654;PMS1003;21773;50.010;19.972;2022-09-29T06:03:12;7.25;7.25;6.25
35654;PMS1003;21773;50.010;19.972;2022-09-29T06:06:16;8.00;8.00;7.00
35654;PMS1003;21773;50.010;19.972;2022-09-29T06:09:23;7.00;7.00;6.00
35654;PMS1003;21773;50.010;19.972;2022-09-29T06:12:27;9.50;8.50;7.50
35654;PMS1003;21773;50.010;19.972;2022-09-29T06:15:35;7.20;7.20;6.80
35654;PMS1003;21773;50.010;19.972;2022-09-29T06:18:39;7.00;6.50;6.00
35654;PMS1003;21773;50.010;19.972;2022-09-29T06:21:43;7.00;7.00;6.80
35654;PMS1003;21773;50.010;19.972;2022-09-29T06:24:46;10.00;8.00;7.00
35654;PMS1003;21773;50.010;19.972;2022-09-29T06:27:51;9.00;8.00;8.00
35654;PMS1003;21773;50.010;19.972;2022-09-29T06:30:57;8.00;6.20;6.00
35654;PMS1003;21773;50.010;19.972;2022-09-29T06:34:02;6.40;6.40;5.40
35654;PMS1003;21773;50.010;19.972;2022-09-29T06:37:07;7.00;7.00;6.00
35654;PMS1003;21773;50.010;19.972;2022-09-29T06:40:29;7.60;6.60;5.00
35654;PMS1003;21773;50.010;19.972;2022-09-29T06:43:34;6.80;6.40;6.00
35654;PMS1003;21773;50.010;19.972;2022-09-29T06:46:38;8.00;8.00;7.00
35654;PMS1003;21773;50.010;19.972;2022-09-29T06:49:41;8.00;7.00;6.00
35654;PMS1003;21773;50.010;19.972;2022-09-29T06:52:54;7.40;7.00;6.00
35654;PMS1003;21773;50.010;19.972;2022-09-29T06:56:05;7.40;6.40;6.00
35654;PMS1003;21773;50.010;19.972;2022-09-29T06:59:12;7.00;6.00;6.00
35654;PMS1003;21773;50.010;19.972;2022-09-29T07:02:15;7.40;7.00;6.00
35654;PMS1003;21773;50.010;19.972;2022-09-29T07:05:19;6.60;6.00;5.00
35654;PMS1003;21773;50.010;19.972;2022-09-29T07:08:22;8.00;7.00;5.00
35654;PMS1003;21773;50.010;19.972;2022-09-29T07:11:26;6.00;5.00;4.00
35654;PMS1003;21773;50.010;19.972;2022-09-29T07:14:31;5.00;4.00;3.00
35654;PMS1003;21773;50.010;19.972;2022-09-29T07:17:34;7.00;7.00;6.00
35654;PMS1003;21773;50.010;19.972;2022-09-29T07:20:38;5.00;4.00;4.00
35654;PMS1003;21773;50.010;19.972;2022-09-29T07:23:42;6.40;5.20;5.00
35654;PMS1003;21773;50.010;19.972;2022-09-29T07:26:46;6.00;6.00;5.00
35654;PMS1003;21773;50.010;19.972;2022-09-29T07:29:51;5.00;5.00;4.00
35654;PMS1003;21773;50.010;19.972;2022-09-29T07:33:04;6.00;6.00;5.40
35654;PMS1003;21773;50.010;19.972;2022-09-29T07:36:07;6.00;6.00;4.75
35654;PMS1003;21773;50.010;19.972;2022-09-29T07:39:11;4.00;4.00;3.00
35654;PMS1003;21773;50.010;19.972;2022-09-29T07:42:14;4.40;4.00;4.00
35654;PMS1003;21773;50.010;19.972;2022-09-29T07:45:29;4.00;3.60;3.00
35654;PMS1003;21773;50.010;19.972;2022-09-29T07:48:34;5.67;5.00;5.00
35654;PMS1003;21773;50.010;19.972;2022-09-29T07:51:40;5.40;5.00;4.00
35654;PMS1003;21773;50.010;19.972;2022-09-29T07:54:43;6.00;5.60;5.00
35654;PMS1003;21773;50.010;19.972;2022-09-29T07:57:47;6.00;5.00;4.75
35654;PMS1003;21773;50.010;19.972;2022-09-29T08:00:54;5.25;5.00;4.00
35654;PMS1003;21773;50.010;19.972;2022-09-29T08:03:58;5.20;5.00;4.20
35654;PMS1003;21773;50.010;19.972;2022-09-29T08:07:03;7.00;6.00;5.40
35654;PMS1003;21773;50.010;19.972;2022-09-29T08:10:06;4.00;4.00;3.20
35654;PMS1003;21773;50.010;19.972;2022-09-29T08:13:18;6.00;5.00;5.00
35654;PMS1003;21773;50.010;19.972;2022-09-29T08:16:23;6.00;6.00;5.00
35654;PMS1003;21773;50.010;19.972;2022-09-29T08:19:26;5.00;5.00;4.40
35654;PMS1003;21773;50.010;19.972;2022-09-29T08:22:29;6.00;5.40;5.00
35654;PMS1003;21773;50.010;19.972;2022-09-29T08:25:33;6.00;5.00;5.00
35654;PMS1003;21773;50.010;19.972;2022-09-29T08:28:37;6.00;5.00;5.00
35654;PMS1003;21773;50.010;19.972;2022-09-29T08:31:42;6.00;5.20;5.00
35654;PMS1003;21773;50.010;19.972;2022-09-29T08:34:46;6.20;5.80;5.00
35654;PMS1003;21773;50.010;19.972;2022-09-29T08:37:50;6.40;6.00;5.40
35654;PMS1003;21773;50.010;19.972;2022-09-29T08:40:55;4.00;4.00;4.00
35654;PMS1003;21773;50.010;19.972;2022-09-29T08:44:06;4.25;4.00;4.00
35654;PMS1003;21773;50.010;19.972;2022-09-29T08:47:38;3.20;3.20;3.00
35654;PMS1003;21773;50.010;19.972;2022-09-29T08:50:48;3.00;3.00;3.00
35654;PMS1003;21773;50.010;19.972;2022-09-29T08:53:59;2.75;2.75;2.00
35654;PMS1003;21773;50.010;19.972;2022-09-29T08:57:20;3.00;3.00;2.00
35654;PMS1003;21773;50.010;19.972;2022-09-29T09:00:28;3.00;3.00;3.00
35654;PMS1003;21773;50.010;19.972;2022-09-29T09:07:25;3.00;3.00;2.60
35654;PMS1003;21773;50.010;19.972;2022-09-29T09:10:38;4.00;4.00;4.00
35654;PMS1003;21773;50.010;19.972;2022-09-29T09:13:51;4.00;4.00;3.00
35654;PMS1003;21773;50.010;19.972;2022-09-29T09:17:10;3.00;3.00;2.00
35654;PMS1003;21773;50.010;19.972;2022-09-29T09:20:28;5.00;4.00;3.00
35654;PMS1003;21773;50.010;19.972;2022-09-29T09:23:43;4.20;3.20;3.20
35654;PMS1003;21773;50.010;19.972;2022-09-29T09:27:00;4.00;3.00;3.00
35654;PMS1003;21773;50.010;19.972;2022-09-29T09:30:06;3.00;3.00;2.50
35654;PMS1003;21773;50.010;19.972;2022-09-29T09:33:18;3.00;3.00;3.00
35654;PMS1003;21773;50.010;19.972;2022-09-29T09:36:34;2.40;2.40;2.00
35654;PMS1003;21773;50.010;19.972;2022-09-29T09:39:41;2.00;2.00;2.00
35654;PMS1003;21773;50.010;19.972;2022-09-29T09:42:51;4.00;3.00;3.00
35654;PMS1003;21773;50.010;19.972;2022-09-29T09:46:01;5.00;4.25;4.00
35654;PMS1003;21773;50.010;19.972;2022-09-29T09:49:13;4.75;4.75;4.00
35654;PMS1003;21773;50.010;19.972;2022-09-29T09:52:23;5.00;3.20;3.00
35654;PMS1003;21773;50.010;19.972;2022-09-29T09:55:32;4.00;4.00;4.00
35654;PMS1003;21773;50.010;19.972;2022-09-29T09:58:53;5.00;5.00;4.00
35654;PMS1003;21773;50.010;19.972;2022-09-29T10:02:10;3.60;3.60;3.00
35654;PMS1003;21773;50.010;19.972;2022-09-29T10:05:20;3.20;3.00;3.00
35654;PMS1003;21773;50.010;19.972;2022-09-29T10:08:28;4.00;3.40;3.00
35654;PMS1003;21773;50.010;19.972;2022-09-29T10:11:39;5.00;4.75;4.00
35654;PMS1003;21773;50.010;19.972;2022-09-29T10:14:45;5.20;5.00;4.20
35654;PMS1003;21773;50.010;19.972;2022-09-29T10:17:56;3.75;3.75;3.75
35654;PMS1003;21773;50.010;19.972;2022-09-29T10:21:08;3.00;2.40;2.00
35654;PMS1003;21773;50.010;19.972;2022-09-29T10:24:26;2.00;2.00;2.00
35654;PMS1003;21773;50.010;19.972;2022-09-29T10:27:31;4.00;4.00;3.00
35654;PMS1003;21773;50.010;19.972;2022-09-29T10:30:34;3.00;3.00;2.80
35654;PMS1003;21773;50.010;19.972;2022-09-29T10:33:38;4.00;4.00;3.00
35654;PMS1003;21773;50.010;19.972;2022-09-29T10:36:50;4.00;3.00;3.00
35654;PMS1003;21773;50.010;19.972;2022-09-29T10:40:02;3.50;3.00;2.75
35654;PMS1003;21773;50.010;19.972;2022-09-29T10:43:21;4.00;3.00;3.00
35654;PMS1003;21773;50.010;19.972;2022-09-29T10:46:37;3.00;3.00;2.60
35654;PMS1003;21773;50.010;19.972;2022-09-29T10:50:07;3.00;3.00;2.00
35654;PMS1003;21773;50.010;19.972;2022-09-29T10:53:23;3.00;3.00;3.00
35654;PMS1003;21773;50.010;19.972;2022-09-29T10:56:34;3.40;3.40;3.00
35654;PMS1003;21773;50.010;19.972;2022-09-29T10:59:43;2.60;2.60;2.00
35654;PMS1003;21773;50.010;19.972;2022-09-29T11:02:49;3.00;3.00;3.00
35654;PMS1003;21773;50.010;19.972;2022-09-29T11:05:53;3.00;3.00;3.00
35654;PMS1003;21773;50.010;19.972;2022-09-29T11:09:02;3.00;3.00;2.00
35654;PMS1003;21773;50.010;19.972;2022-09-29T11:12:28;2.40;2.40;2.00
35654;PMS1003;21773;50.010;19.972;2022-09-29T11:15:37;2.00;2.00;2.00
35654;PMS1003;21773;50.010;19.972;2022-09-29T11:18:42;3.00;3.00;3.00
35654;PMS1003;21773;50.010;19.972;2022-09-29T11:22:14;3.00;3.00;3.00
35654;PMS1003;21773;50.010;19.972;2022-09-29T11:25:45;3.00;3.00;3.00
35654;PMS1003;21773;50.010;19.972;2022-09-29T11:29:05;4.40;4.00;3.00
35654;PMS1003;21773;50.010;19.972;2022-09-29T11:32:26;3.00;3.00;2.00
35654;PMS1003;21773;50.010;19.972;2022-09-29T11:35:44;4.00;4.00;3.40
35654;PMS1003;21773;50.010;19.972;2022-09-29T11:38:55;2.80;2.80;2.80
35654;PMS1003;21773;50.010;19.972;2022-09-29T11:42:19;4.00;3.40;3.00
35654;PMS1003;21773;50.010;19.972;2022-09-29T11:45:38;4.00;4.00;3.00
35654;PMS1003;21773;50.010;19.972;2022-09-29T11:52:29;4.25;4.00;4.00
35654;PMS1003;21773;50.010;19.972;2022-09-29T11:55:57;4.00;4.00;3.00
35654;PMS1003;21773;50.010;19.972;2022-09-29T11:59:17;2.50;2.50;2.50
35654;PMS1003;21773;50.010;19.972;2022-09-29T12:02:44;2.80;2.80;2.00
35654;PMS1003;21773;50.010;19.972;2022-09-29T12:10:11;2.00;2.00;2.00
35654;PMS1003;21773;50.010;19.972;2022-09-29T12:13:29;2.40;2.40;2.00
35654;PMS1003;21773;50.010;19.972;2022-09-29T12:16:45;2.00;2.00;2.00
35654;PMS1003;21773;50.010;19.972;2022-09-29T12:19:56;3.00;3.00;2.20
35654;PMS1003;21773;50.010;19.972;2022-09-29T12:23:06;2.25;2.25;2.25
35654;PMS1003;21773;50.010;19.972;2022-09-29T12:26:14;3.00;3.00;2.00
35654;PMS1003;21773;50.010;19.972;2022-09-29T12:29:25;2.00;2.00;2.00
35654;PMS1003;21773;50.010;19.972;2022-09-29T12:32:36;2.00;2.00;1.40
35654;PMS1003;21773;50.010;19.972;2022-09-29T12:35:46;2.00;2.00;1.25
35654;PMS1003;21773;50.010;19.972;2022-09-29T12:39:00;3.00;2.20;2.20
35654;PMS1003;21773;50.010;19.972;2022-09-29T12:42:16;2.20;2.00;2.00
35654;PMS1003;21773;50.010;19.972;2022-09-29T12:45:30;4.00;4.00;3.00
35654;PMS1003;21773;50.010;19.972;2022-09-29T12:48:43;4.00;3.00;2.40
35654;PMS1003;21773;50.010;19.972;2022-09-29T12:51:55;3.00;3.00;2.00
35654;PMS1003;21773;50.010;19.972;2022-09-29T12:55:00;4.00;3.60;3.00
35654;PMS1003;21773;50.010;19.972;2022-09-29T12:58:08;3.00;3.00;2.00
35654;PMS1003;21773;50.010;19.972;2022-09-29T13:01:20;2.00;2.00;2.00
35654;PMS1003;21773;50.010;19.972;2022-09-29T13:08:19;4.00;4.00;3.00
35654;PMS1003;21773;50.010;19.972;2022-09-29T13:11:40;4.00;4.00;4.00
35654;PMS1003;21773;50.010;19.972;2022-09-29T13:18:33;3.40;3.40;3.40
35654;PMS1003;21773;50.010;19.972;2022-09-29T13:22:05;3.00;3.00;3.00
35654;PMS1003;21773;50.010;19.972;2022-09-29T13:25:29;4.00;4.00;4.00
35654;PMS1003;21773;50.010;19.972;2022-09-29T13:28:42;5.00;5.00;4.00
35654;PMS1003;21773;50.010;19.972;2022-09-29T13:31:48;5.00;5.00;4.25
35654;PMS1003;21773;50.010;19.972;2022-09-29T13:34:55;3.40;3.40;3.00
35654;PMS1003;21773;50.010;19.972;2022-09-29T13:38:02;4.00;4.00;4.00
35654;PMS1003;21773;50.010;19.972;2022-09-29T13:41:11;5.00;4.60;3.00
35654;PMS1003;21773;50.010;19.972;2022-09-29T13:44:22;5.00;4.00;4.00
35654;PMS1003;21773;50.010;19.972;2022-09-29T13:47:30;5.75;5.00;5.00
35654;PMS1003;21773;50.010;19.972;2022-09-29T13:50:41;4.00;3.20;3.00
35654;PMS1003;21773;50.010;19.972;2022-09-29T13:53:46;3.50;3.50;3.50
35654;PMS1003;21773;50.010;19.972;2022-09-29T14:00:32;4.60;4.60;4.00
35654;PMS1003;21773;50.010;19.972;2022-09-29T14:03:36;4.25;4.00;4.00
35654;PMS1003;21773;50.010;19.972;2022-09-29T14:06:42;5.00;4.00;3.25
35654;PMS1003;21773;50.010;19.972;2022-09-29T14:09:49;5.20;5.20;5.00
35654;PMS1003;21773;50.010;19.972;2022-09-29T14:12:55;10.00;10.00;9.60
35654;PMS1003;21773;50.010;19.972;2022-09-29T14:16:08;7.00;6.00;5.60
35654;PMS1003;21773;50.010;19.972;2022-09-29T14:19:32;6.00;5.00;5.00
35654;PMS1003;21773;50.010;19.972;2022-09-29T14:22:57;5.00;4.00;4.00
35654;PMS1003;21773;50.010;19.972;2022-09-29T14:29:51;4.00;4.00;3.50
35654;PMS1003;21773;50.010;19.972;2022-09-29T14:33:01;4.00;4.00;4.00
35654;PMS1003;21773;50.010;19.972;2022-09-29T14:36:11;3.00;3.00;3.00
35654;PMS1003;21773;50.010;19.972;2022-09-29T14:39:17;4.00;3.75;3.00
35654;PMS1003;21773;50.010;19.972;2022-09-29T14:42:28;4.00;3.40;3.00
35654;PMS1003;21773;50.010;19.972;2022-09-29T14:45:37;2.80;2.00;2.00
35654;PMS1003;21773;50.010;19.972;2022-09-29T14:53:01;4.00;4.00;4.00
35654;PMS1003;21773;50.010;19.972;2022-09-29T14:56:27;4.00;4.00;3.33
35654;PMS1003;21773;50.010;19.972;2022-09-29T14:59:46;4.00;4.00;4.00
35654;PMS1003;21773;50.010;19.972;2022-09-29T15:03:04;4.00;4.00;4.00
35654;PMS1003;21773;50.010;19.972;2022-09-29T15:06:28;3.20;3.20;3.00
35654;PMS1003;21773;50.010;19.972;2022-09-29T15:09:34;5.60;5.00;4.60
35654;PMS1003;21773;50.010;19.972;2022-09-29T15:12:38;6.80;4.80;4.00
35654;PMS1003;21773;50.010;19.972;2022-09-29T15:15:42;5.20;4.00;3.20
35654;PMS1003;21773;50.010;19.972;2022-09-29T15:18:56;4.00;4.00;4.00
35654;PMS1003;21773;50.010;19.972;2022-09-29T15:22:29;5.60;5.60;5.40
35654;PMS1003;21773;50.010;19.972;2022-09-29T15:25:53;6.00;5.75;4.75
35654;PMS1003;21773;50.010;19.972;2022-09-29T15:29:05;6.40;6.00;5.40
35654;PMS1003;21773;50.010;19.972;2022-09-29T15:32:14;5.60;5.40;5.00
35654;PMS1003;21773;50.010;19.972;2022-09-29T15:35:25;5.40;5.00;4.60
35654;PMS1003;21773;50.010;19.972;2022-09-29T15:38:29;5.00;5.00;5.00
35654;PMS1003;21773;50.010;19.972;2022-09-29T15:41:37;6.00;6.00;5.00
35654;PMS1003;21773;50.010;19.972;2022-09-29T15:44:44;7.00;5.00;4.80
35654;PMS1003;21773;50.010;19.972;2022-09-29T15:47:57;6.00;6.00;6.00
35654;PMS1003;21773;50.010;19.972;2022-09-29T15:51:04;6.60;6.60;6.00
35654;PMS1003;21773;50.010;19.972;2022-09-29T15:54:09;7.00;6.60;6.00
35654;PMS1003;21773;50.010;19.972;2022-09-29T15:57:26;6.00;6.00;5.00
35654;PMS1003;21773;50.010;19.972;2022-09-29T16:00:57;6.00;6.00;6.00
35654;PMS1003;21773;50.010;19.972;2022-09-29T16:04:07;5.00;5.00;4.60
35654;PMS1003;21773;50.010;19.972;2022-09-29T16:07:17;6.20;5.20;5.00
35654;PMS1003;21773;50.010;19.972;2022-09-29T16:10:26;5.20;4.80;4.00
35654;PMS1003;21773;50.010;19.972;2022-09-29T16:13:32;5.00;5.00;4.00
35654;PMS1003;21773;50.010;19.972;2022-09-29T16:16:39;6.00;6.00;5.00
35654;PMS1003;21773;50.010;19.972;2022-09-29T16:19:44;7.00;7.00;6.00
35654;PMS1003;21773;50.010;19.972;2022-09-29T16:22:52;6.60;6.00;5.60
35654;PMS1003;21773;50.010;19.972;2022-09-29T16:26:10;7.50;7.00;6.00
35654;PMS1003;21773;50.010;19.972;2022-09-29T16:29:22;7.00;6.40;6.00
35654;PMS1003;21773;50.010;19.972;2022-09-29T16:32:36;7.50;7.00;6.50
35654;PMS1003;21773;50.010;19.972;2022-09-29T16:35:44;8.40;8.00;7.40
35654;PMS1003;21773;50.010;19.972;2022-09-29T16:38:58;7.00;6.00;5.00
35654;PMS1003;21773;50.010;19.972;2022-09-29T16:42:03;8.00;7.00;6.00
35654;PMS1003;21773;50.010;19.972;2022-09-29T16:45:12;8.00;8.00;7.00
35654;PMS1003;21773;50.010;19.972;2022-09-29T16:48:18;9.00;9.00;8.00
35654;PMS1003;21773;50.010;19.972;2022-09-29T16:51:23;10.80;10.00;9.80
35654;PMS1003;21773;50.010;19.972;2022-09-29T16:54:42;13.00;10.25;9.00
35654;PMS1003;21773;50.010;19.972;2022-09-29T16:57:49;10.00;10.00;10.00
35654;PMS1003;21773;50.010;19.972;2022-09-29T17:00:56;10.25;10.00;9.00
35654;PMS1003;21773;50.010;19.972;2022-09-29T17:04:00;9.80;8.80;7.20
35654;PMS1003;21773;50.010;19.972;2022-09-29T17:07:03;9.60;9.60;9.00
35654;PMS1003;21773;50.010;19.972;2022-09-29T17:10:13;10.00;9.00;8.00
35654;PMS1003;21773;50.010;19.972;2022-09-29T17:13:19;12.00;11.00;10.00
35654;PMS1003;21773;50.010;19.972;2022-09-29T17:16:24;12.00;10.00;9.00
35654;PMS1003;21773;50.010;19.972;2022-09-29T17:19:30;12.40;11.40;11.00
35654;PMS1003;21773;50.010;19.972;2022-09-29T17:22:34;11.00;11.00;10.00
35654;PMS1003;21773;50.010;19.972;2022-09-29T17:25:40;13.40;12.40;11.00
35654;PMS1003;21773;50.010;19.972;2022-09-29T17:28:46;13.00;13.00;11.40
35654;PMS1003;21773;50.010;19.972;2022-09-29T17:31:49;13.50;13.00;11.00
35654;PMS1003;21773;50.010;19.972;2022-09-29T17:34:53;11.60;11.60;9.60
35654;PMS1003;21773;50.010;19.972;2022-09-29T17:37:56;15.40;15.00;13.00
35654;PMS1003;21773;50.010;19.972;2022-09-29T17:41:01;16.80;15.80;13.00
35654;PMS1003;21773;50.010;19.972;2022-09-29T17:44:07;15.20;14.00;13.00
35654;PMS1003;21773;50.010;19.972;2022-09-29T17:47:11;14.00;13.00;12.00
35654;PMS1003;21773;50.010;19.972;2022-09-29T17:50:30;13.50;13.50;12.00
35654;PMS1003;21773;50.010;19.972;2022-09-29T17:53:37;14.40;14.00;13.00
35654;PMS1003;21773;50.010;19.972;2022-09-29T17:56:43;13.80;12.80;11.00
35654;PMS1003;21773;50.010;19.972;2022-09-29T17:59:47;13.00;12.20;11.00
35654;PMS1003;21773;50.010;19.972;2022-09-29T18:02:50;13.80;13.00;11.20
35654;PMS1003;21773;50.010;19.972;2022-09-29T18:05:58;13.60;13.20;12.60
35654;PMS1003;21773;50.010;19.972;2022-09-29T18:09:01;14.00;13.60;12.00
35654;PMS1003;21773;50.010;19.972;2022-09-29T18:12:15;16.00;14.00;12.00
35654;PMS1003;21773;50.010;19.972;2022-09-29T18:15:18;17.40;16.40;15.00
35654;PMS1003;21773;50.010;19.972;2022-09-29T18:18:21;13.80;13.80;12.00
35654;PMS1003;21773;50.010;19.972;2022-09-29T18:21:25;15.40;14.00;12.40
35654;PMS1003;21773;50.010;19.972;2022-09-29T18:24:29;16.00;14.20;13.00
35654;PMS1003;21773;50.010;19.972;2022-09-29T18:27:34;13.80;12.80;11.00
35654;PMS1003;21773;50.010;19.972;2022-09-29T18:30:37;13.40;12.60;11.00
35654;PMS1003;21773;50.010;19.972;2022-09-29T18:33:41;13.00;12.75;11.50
35654;PMS1003;21773;50.010;19.972;2022-09-29T18:36:45;14.40;13.60;11.60